Knickerbocker — WDC7987 — position and weather

sailwx.info

Track history (hours):
 
Tides and Currents Weather Stations Pressure Air Temp Water Temp Dewpoint Dewpoint Depression Visibility Wind Speed Wind Dir Waves Ship Positions

Knickerbocker

Owner: Christopher Corp., Newport, RI. More information available from US FCC via Universal Licensing System and Coast Guard Vessel Documentation Center.

Last reported at 2018-Feb-18 16:34 UTC. Time now 2018-Feb-20 00:06 UTC.
Position N 15°53' W 061°35'.

Length 36 m; draft 3.6 m.

Type: Sailing vessel. MMSI: 367079960.

Date/timePositionNaut miles runAvg speedWind from/ knotsBaromVisibWave heightAir tempDewpointWater temp
2018-Feb-18 16:34N 15°53' W 061°35'1 9.6
2018-Feb-18 16:30N 15°54' W 061°35'16 9.4
2018-Feb-18 14:47N 16°10' W 061°32'2 8.4
2018-Feb-18 14:30N 16°12' W 061°32'1 2.4
2018-Feb-18 13:59N 16°13' W 061°32'0 0.1
2018-Feb-18 13:19N 16°13' W 061°32'0 0.0
2018-Feb-18 12:55N 16°13' W 061°32'0 0.0
2018-Feb-18 12:19N 16°13' W 061°32'0 0.0
2018-Feb-18 11:52N 16°13' W 061°32'0 0.0
2018-Feb-18 11:28N 16°13' W 061°32'0 0.0
2018-Feb-18 10:49N 16°13' W 061°32'0 0.0
2018-Feb-18 10:28N 16°13' W 061°32'0 0.0
2018-Feb-18 09:49N 16°13' W 061°32'0 0.0
2018-Feb-18 09:28N 16°13' W 061°32'0 0.0
2018-Feb-18 08:43N 16°13' W 061°32'0 0.0
2018-Feb-18 08:25N 16°13' W 061°32'0 0.0
2018-Feb-18 07:34N 16°13' W 061°32'0 0.0
2018-Feb-18 07:19N 16°13' W 061°32'0 0.0
2018-Feb-18 04:16N 16°13' W 061°32'0 0.0
2018-Feb-18 03:58N 16°13' W 061°32'0 0.0
2018-Feb-18 03:22N 16°13' W 061°32'0 0.0
2018-Feb-18 02:10N 16°13' W 061°32'0 0.0
2018-Feb-18 01:35N 16°13' W 061°32'0 0.1
2018-Feb-18 01:30N 16°13' W 061°32'0 0.0
2018-Feb-18 01:00N 16°13' W 061°32'0 0.0
2018-Feb-18 00:29N 16°13' W 061°32'0 0.0
2018-Feb-17 23:20N 16°13' W 061°32'1 3.2
2018-Feb-17 22:58N 16°12' W 061°31'1 0.8
2018-Feb-17 22:15N 16°13' W 061°32'1 0.0
2018-Feb-15 19:43N 16°13' W 061°32'0 0.8
2018-Feb-15 19:26N 16°13' W 061°32'1 2.2
2018-Feb-15 18:57N 16°12' W 061°32'18 5.3
2018-Feb-15 15:33N 16°00' W 061°46'0 8.9
2018-Feb-15 15:30N 16°01' W 061°46'15 9.6
2018-Feb-15 13:59N 16°14' W 061°51'510.6
2018-Feb-15 13:30N 16°19' W 061°52'611.6
2018-Feb-15 13:00N 16°25' W 061°52'611.7
2018-Feb-15 12:30N 16°31' W 061°51'611.4
2018-Feb-15 12:00N 16°37' W 061°50'611.5
2018-Feb-15 11:30N 16°42' W 061°50'611.7
2018-Feb-15 11:00N 16°48' W 061°50'510.8
2018-Feb-15 10:30N 16°53' W 061°48'610.8
2018-Feb-15 10:00N 16°59' W 061°47'2 4.5
2018-Feb-15 09:30N 17°01' W 061°46'0 0.2
2018-Feb-15 08:58N 17°01' W 061°46'0 0.0
2018-Feb-15 08:28N 17°01' W 061°46'0 0.0
2018-Feb-15 07:58N 17°01' W 061°46'0 0.0
2018-Feb-15 07:28N 17°01' W 061°46'0 0.0
2018-Feb-15 06:58N 17°01' W 061°46'0 0.0
2018-Feb-15 06:25N 17°01' W 061°46'0 0.0
2018-Feb-15 05:58N 17°01' W 061°46'0 0.0
2018-Feb-15 05:25N 17°01' W 061°46'0 0.0
2018-Feb-15 04:58N 17°01' W 061°46'0 0.0
2018-Feb-15 04:28N 17°01' W 061°46'0 0.0
2018-Feb-15 03:58N 17°01' W 061°46'0 0.0
2018-Feb-15 03:28N 17°01' W 061°46'0 0.0
2018-Feb-15 02:58N 17°01' W 061°46'0 0.0
2018-Feb-15 02:28N 17°01' W 061°46'0 0.0
2018-Feb-15 01:58N 17°01' W 061°46'0 0.0
2018-Feb-15 01:28N 17°01' W 061°46'0 0.0
2018-Feb-15 00:58N 17°01' W 061°46'0 0.0
2018-Feb-15 00:28N 17°01' W 061°46'0 0.0
2018-Feb-14 23:58N 17°01' W 061°46'0 0.0
2018-Feb-14 23:28N 17°01' W 061°46'0 0.0
2018-Feb-14 22:58N 17°01' W 061°46'0 0.0
2018-Feb-14 22:28N 17°01' W 061°46'0 0.0
2018-Feb-14 21:58N 17°01' W 061°46'0 0.0
2018-Feb-14 21:28N 17°01' W 061°46'0 0.0
2018-Feb-14 20:58N 17°01' W 061°46'0 0.0
2018-Feb-14 20:28N 17°01' W 061°46'0 0.0
2018-Feb-14 19:58N 17°01' W 061°46'0 0.0
2018-Feb-14 19:28N 17°01' W 061°46'0 0.0
2018-Feb-14 18:58N 17°01' W 061°46'0 0.0
2018-Feb-14 18:28N 17°01' W 061°46'0 0.0
2018-Feb-14 17:55N 17°01' W 061°46'0 0.0
2018-Feb-14 17:28N 17°01' W 061°46'0 0.0
2018-Feb-14 16:58N 17°01' W 061°46'0 0.0
2018-Feb-14 16:28N 17°01' W 061°46'0 0.0
2018-Feb-14 15:58N 17°01' W 061°46'0 0.0
2018-Feb-14 15:28N 17°01' W 061°46'0 0.0
2018-Feb-14 14:58N 17°01' W 061°46'0 0.0
2018-Feb-14 14:28N 17°01' W 061°46'0 0.0
2018-Feb-14 13:58N 17°01' W 061°46'0 0.0
2018-Feb-14 13:28N 17°01' W 061°46'0 0.0
2018-Feb-14 12:58N 17°01' W 061°46'0 0.0
2018-Feb-14 12:28N 17°01' W 061°46'0 0.0
2018-Feb-14 11:58N 17°01' W 061°46'0 0.0
2018-Feb-14 11:28N 17°01' W 061°46'0 0.0
2018-Feb-14 10:58N 17°01' W 061°46'0 0.0
2018-Feb-14 10:28N 17°01' W 061°46'0 0.0
2018-Feb-14 09:58N 17°01' W 061°46'0 0.0
2018-Feb-14 09:28N 17°01' W 061°46'0 0.0
2018-Feb-14 08:58N 17°01' W 061°46'0 0.0
2018-Feb-14 08:28N 17°01' W 061°46'0 0.0
2018-Feb-14 07:58N 17°01' W 061°46'0 0.0
2018-Feb-14 07:28N 17°01' W 061°46'0 0.0
2018-Feb-14 06:58N 17°01' W 061°46'0 0.0
2018-Feb-14 06:28N 17°01' W 061°46'0 0.0
2018-Feb-14 05:58N 17°01' W 061°46'0 0.0
2018-Feb-14 05:28N 17°01' W 061°46'0 0.0
2018-Feb-14 04:58N 17°01' W 061°46'0 0.0
2018-Feb-14 04:28N 17°01' W 061°46'0 0.0
2018-Feb-14 03:58N 17°01' W 061°46'0 0.0
2018-Feb-14 03:28N 17°01' W 061°46'0 0.0
2018-Feb-14 02:58N 17°01' W 061°46'0 0.0
2018-Feb-14 02:28N 17°01' W 061°46'0 0.0
2018-Feb-14 01:58N 17°01' W 061°46'0 0.0
2018-Feb-14 01:28N 17°01' W 061°46'0 0.0
2018-Feb-14 00:58N 17°01' W 061°46'0 0.0
2018-Feb-14 00:28N 17°01' W 061°46'0 0.0
2018-Feb-13 23:58N 17°01' W 061°46'0 0.0
2018-Feb-13 23:28N 17°01' W 061°46'0 0.0
2018-Feb-13 22:58N 17°01' W 061°46'0 0.0
2018-Feb-13 22:28N 17°01' W 061°46'0 0.0
2018-Feb-13 21:58N 17°01' W 061°46'0 0.0
2018-Feb-13 21:25N 17°01' W 061°46'0 0.0
2018-Feb-13 20:59N 17°01' W 061°46'0 0.0
2018-Feb-13 20:30N 17°01' W 061°46'0 0.0
2018-Feb-13 20:00N 17°01' W 061°46'0 0.0
2018-Feb-13 19:30N 17°01' W 061°46'0 0.0
2018-Feb-13 19:01N 17°01' W 061°46'0 0.0
2018-Feb-13 18:30N 17°01' W 061°46'0 0.0
2018-Feb-13 18:00N 17°01' W 061°46'0 0.0
2018-Feb-13 17:30N 17°01' W 061°46'0 0.0
2018-Feb-13 17:00N 17°01' W 061°46'0 0.0
2018-Feb-13 16:30N 17°01' W 061°46'0 0.0
2018-Feb-13 16:00N 17°01' W 061°46'0 0.0
2018-Feb-13 15:30N 17°01' W 061°46'0 0.0
2018-Feb-13 15:00N 17°01' W 061°46'0 0.0
2018-Feb-13 14:30N 17°01' W 061°46'0 0.0
2018-Feb-13 14:00N 17°01' W 061°46'0 0.0
2018-Feb-13 13:30N 17°01' W 061°46'0 0.0
2018-Feb-13 13:00N 17°01' W 061°46'0 0.0
2018-Feb-13 12:30N 17°01' W 061°46'0 0.0
2018-Feb-13 12:00N 17°01' W 061°46'0 0.0
2018-Feb-13 11:30N 17°01' W 061°46'0 0.0
2018-Feb-13 11:00N 17°01' W 061°46'0 0.0
2018-Feb-13 10:31N 17°01' W 061°46'0 0.0
2018-Feb-13 10:00N 17°01' W 061°46'0 0.0
2018-Feb-13 09:30N 17°01' W 061°46'0 0.0
2018-Feb-13 09:00N 17°01' W 061°46'0 0.0
2018-Feb-13 08:30N 17°01' W 061°46'0 0.0
2018-Feb-13 08:00N 17°01' W 061°46'0 0.0
2018-Feb-13 07:30N 17°01' W 061°46'0 0.0
2018-Feb-13 07:00N 17°01' W 061°46'0 0.0
2018-Feb-13 06:31N 17°01' W 061°46'0 0.0
2018-Feb-13 06:00N 17°01' W 061°46'0 0.0
2018-Feb-13 05:30N 17°01' W 061°46'0 0.0
2018-Feb-13 05:00N 17°01' W 061°46'0 0.0
2018-Feb-13 04:30N 17°01' W 061°46'0 0.0
2018-Feb-13 04:00N 17°01' W 061°46'0 0.0
2018-Feb-13 03:30N 17°01' W 061°46'0 0.0
2018-Feb-13 03:00N 17°01' W 061°46'0 0.0
2018-Feb-13 02:30N 17°01' W 061°46'0 0.0
2018-Feb-13 02:00N 17°01' W 061°46'0 0.0
2018-Feb-13 01:30N 17°01' W 061°46'0 0.0
2018-Feb-13 01:00N 17°01' W 061°46'0 0.0
2018-Feb-13 00:30N 17°01' W 061°46'0 0.0
2018-Feb-13 00:01N 17°01' W 061°46'0 0.0
2018-Feb-12 23:30N 17°01' W 061°46'0 0.0
2018-Feb-12 23:00N 17°01' W 061°46'0 0.0
2018-Feb-12 22:31N 17°01' W 061°46'0 0.0
2018-Feb-12 22:00N 17°01' W 061°46'0 0.0
2018-Feb-12 21:30N 17°01' W 061°46'0 0.0
2018-Feb-12 21:00N 17°01' W 061°46'0 0.0
2018-Feb-12 20:30N 17°01' W 061°46'0 0.0
2018-Feb-12 20:00N 17°01' W 061°46'0 0.0
2018-Feb-12 19:30N 17°01' W 061°46'0 0.0
2018-Feb-12 19:00N 17°01' W 061°46'0 0.0
2018-Feb-12 18:30N 17°01' W 061°46'0 0.0
2018-Feb-12 18:00N 17°01' W 061°46'0 0.0
2018-Feb-12 17:30N 17°01' W 061°46'0 0.0
2018-Feb-12 17:00N 17°01' W 061°46'0 0.0
2018-Feb-12 16:30N 17°01' W 061°46'0 0.0
2018-Feb-12 16:00N 17°01' W 061°46'0 0.0
2018-Feb-12 15:30N 17°01' W 061°46'0 0.0
2018-Feb-12 15:01N 17°01' W 061°46'0 0.0
2018-Feb-12 14:30N 17°01' W 061°46'0 0.0
2018-Feb-12 14:00N 17°01' W 061°46'0 0.0
2018-Feb-12 13:30N 17°01' W 061°46'0 0.0
2018-Feb-12 13:01N 17°01' W 061°46'0 0.0
2018-Feb-12 12:30N 17°01' W 061°46'0 0.0
2018-Feb-12 12:01N 17°01' W 061°46'0 0.0
2018-Feb-12 11:30N 17°01' W 061°46'0 0.0
2018-Feb-12 11:00N 17°01' W 061°46'0 0.0
2018-Feb-12 10:30N 17°01' W 061°46'0 0.0
2018-Feb-12 10:00N 17°01' W 061°46'0 0.0
2018-Feb-12 09:30N 17°01' W 061°46'0 0.0
2018-Feb-12 09:00N 17°01' W 061°46'0 0.0
2018-Feb-12 08:30N 17°01' W 061°46'0 0.0
2018-Feb-12 08:00N 17°01' W 061°46'0 0.0
2018-Feb-12 07:30N 17°01' W 061°46'0 0.0
2018-Feb-12 07:00N 17°01' W 061°46'0 0.0
2018-Feb-12 06:30N 17°01' W 061°46'0 0.0
2018-Feb-12 06:00N 17°01' W 061°46'0 0.0
2018-Feb-12 05:30N 17°01' W 061°46'0 0.0
2018-Feb-12 05:00N 17°01' W 061°46'0 0.0
2018-Feb-12 04:30N 17°01' W 061°46'0 0.0
2018-Feb-12 04:00N 17°01' W 061°46'0 0.0
2018-Feb-12 03:30N 17°01' W 061°46'0 0.0
2018-Feb-12 03:00N 17°01' W 061°46'0 0.0
2018-Feb-12 02:30N 17°01' W 061°46'0 0.0
2018-Feb-12 02:00N 17°01' W 061°46'0 0.0
2018-Feb-12 01:30N 17°01' W 061°46'0 0.0
2018-Feb-12 01:00N 17°01' W 061°46'0 0.0
2018-Feb-12 00:31N 17°01' W 061°46'0 0.0
2018-Feb-12 00:00N 17°01' W 061°46'0 0.0
2018-Feb-11 23:30N 17°01' W 061°46'0 0.0
2018-Feb-11 23:00N 17°01' W 061°46'0 0.0
2018-Feb-11 22:30N 17°01' W 061°46'0 0.0
2018-Feb-11 22:00N 17°01' W 061°46'0 0.0
2018-Feb-11 21:30N 17°01' W 061°46'0 0.0
2018-Feb-11 21:01N 17°01' W 061°46'0 0.0
2018-Feb-11 20:30N 17°01' W 061°46'0 0.0
2018-Feb-11 20:00N 17°01' W 061°46'0 0.0
2018-Feb-11 19:30N 17°01' W 061°46'0 0.0
2018-Feb-11 19:00N 17°01' W 061°46'0 0.0
2018-Feb-11 18:30N 17°01' W 061°46'0 0.0
2018-Feb-11 18:00N 17°01' W 061°46'0 0.0
2018-Feb-11 17:30N 17°01' W 061°46'0 0.0
2018-Feb-11 17:00N 17°01' W 061°46'0 0.0
2018-Feb-11 16:30N 17°01' W 061°46'0 0.0
2018-Feb-11 16:01N 17°01' W 061°46'0 0.0
2018-Feb-11 15:30N 17°01' W 061°46'0 0.0
2018-Feb-11 15:00N 17°01' W 061°46'0 0.0
2018-Feb-11 14:30N 17°01' W 061°46'0 0.0
2018-Feb-11 14:00N 17°01' W 061°46'1 1.2
2018-Feb-11 13:31N 17°01' W 061°47'3 5.3
2018-Feb-11 13:00N 16°60' W 061°49'3 7.0
2018-Feb-11 12:31N 17°01' W 061°53'4 8.2
2018-Feb-11 12:00N 17°05' W 061°55'5 9.6
2018-Feb-11 11:31N 17°09' W 061°53'510.4
2018-Feb-11 11:00N 17°11' W 061°48'3 6.8
2018-Feb-11 10:30N 17°09' W 061°45'0 0.2
2018-Feb-11 09:59N 17°09' W 061°45'0 0.0
2018-Feb-11 09:29N 17°09' W 061°45'0 0.0
2018-Feb-11 08:59N 17°09' W 061°45'0 0.0
2018-Feb-11 08:29N 17°09' W 061°45'0 0.0
2018-Feb-11 07:59N 17°09' W 061°45'0 0.0
2018-Feb-11 07:29N 17°09' W 061°45'0 0.0
2018-Feb-11 06:59N 17°09' W 061°45'0 0.0
2018-Feb-11 06:29N 17°09' W 061°45'0 0.0
2018-Feb-11 05:59N 17°09' W 061°45'0 0.0
2018-Feb-11 05:29N 17°09' W 061°45'0 0.0
2018-Feb-11 04:59N 17°09' W 061°45'0 0.0
2018-Feb-11 04:29N 17°09' W 061°45'0 0.0
2018-Feb-11 03:59N 17°09' W 061°45'0 0.0
2018-Feb-11 03:29N 17°09' W 061°45'0 0.0
2018-Feb-11 02:59N 17°09' W 061°45'0 0.0
2018-Feb-11 02:29N 17°09' W 061°45'0 0.0
2018-Feb-11 01:59N 17°09' W 061°45'0 0.0
2018-Feb-11 01:29N 17°09' W 061°45'0 0.0
2018-Feb-11 00:59N 17°09' W 061°45'0 0.0
2018-Feb-11 00:29N 17°09' W 061°45'0 0.0
2018-Feb-10 23:59N 17°09' W 061°45'0 0.0
2018-Feb-10 23:29N 17°09' W 061°45'0 0.0
2018-Feb-10 22:59N 17°09' W 061°45'0 0.0
2018-Feb-10 22:29N 17°09' W 061°45'0 0.0
2018-Feb-10 21:59N 17°09' W 061°45'0 0.0
2018-Feb-10 21:29N 17°09' W 061°45'0 0.0
2018-Feb-10 20:59N 17°09' W 061°45'0 0.0
2018-Feb-10 20:29N 17°09' W 061°45'0 0.0
2018-Feb-10 19:59N 17°09' W 061°45'0 0.0
2018-Feb-10 19:29N 17°09' W 061°45'0 0.0
2018-Feb-10 18:59N 17°09' W 061°45'0 0.0
2018-Feb-10 18:29N 17°09' W 061°45'0 0.0
2018-Feb-10 17:59N 17°09' W 061°45'0 0.0
2018-Feb-10 17:29N 17°09' W 061°45'0 0.0
2018-Feb-10 16:59N 17°09' W 061°45'0 0.0
2018-Feb-10 16:29N 17°09' W 061°45'0 0.0
2018-Feb-10 15:59N 17°09' W 061°45'0 0.0
2018-Feb-10 15:29N 17°09' W 061°45'0 0.0
2018-Feb-10 14:59N 17°09' W 061°45'0 0.0
2018-Feb-10 14:29N 17°09' W 061°45'0 0.0
2018-Feb-10 13:59N 17°09' W 061°45'0 0.0
2018-Feb-10 13:29N 17°09' W 061°45'0 0.0
2018-Feb-10 12:59N 17°09' W 061°45'0 0.0
2018-Feb-10 12:29N 17°09' W 061°45'0 0.0
2018-Feb-10 11:59N 17°09' W 061°45'0 0.0
2018-Feb-10 11:29N 17°09' W 061°45'0 0.0
2018-Feb-10 10:59N 17°09' W 061°45'0 0.0
2018-Feb-10 10:29N 17°09' W 061°45'0 0.0
2018-Feb-10 09:59N 17°09' W 061°45'0 0.0
2018-Feb-10 09:29N 17°09' W 061°45'0 0.0
2018-Feb-10 08:59N 17°09' W 061°45'0 0.0
2018-Feb-10 08:29N 17°09' W 061°45'0 0.0
2018-Feb-10 07:59N 17°09' W 061°45'0 0.0
2018-Feb-10 07:29N 17°09' W 061°45'0 0.0
2018-Feb-10 06:59N 17°09' W 061°45'0 0.0
2018-Feb-10 06:29N 17°09' W 061°45'0 0.0
2018-Feb-10 05:59N 17°09' W 061°45'0 0.0
2018-Feb-10 05:29N 17°09' W 061°45'0 0.0
2018-Feb-10 04:59N 17°09' W 061°45'0 0.0
2018-Feb-10 04:29N 17°09' W 061°45'0 0.0
2018-Feb-10 03:59N 17°09' W 061°45'0 0.0
2018-Feb-10 03:29N 17°09' W 061°45'0 0.0
2018-Feb-10 02:59N 17°09' W 061°45'0 0.0
2018-Feb-10 02:29N 17°09' W 061°45'0 0.0
2018-Feb-10 01:59N 17°09' W 061°45'0 0.0
2018-Feb-10 01:29N 17°09' W 061°45'0 0.0
2018-Feb-10 00:59N 17°09' W 061°45'0 0.0
2018-Feb-10 00:29N 17°09' W 061°45'0 0.0
2018-Feb-09 23:59N 17°09' W 061°45'0 0.0
2018-Feb-09 23:29N 17°09' W 061°45'0 0.0
2018-Feb-09 22:59N 17°09' W 061°45'0 0.0
2018-Feb-09 22:44N 17°09' W 061°45'0 0.0
2018-Feb-08 22:00N 17°09' W 061°45'0 0.0
2018-Feb-08 21:30N 17°09' W 061°45'0 0.0
2018-Feb-08 21:00N 17°09' W 061°45'0 0.0
2018-Feb-08 20:30N 17°09' W 061°45'0 0.1
2018-Feb-08 20:00N 17°09' W 061°45'0 0.0
2018-Feb-08 19:30N 17°09' W 061°45'  
Track history (hours):
 
Tides and Currents Weather Stations Pressure Air Temp Water Temp Dewpoint Dewpoint Depression Visibility Wind Speed Wind Dir Waves Ship Positions

Knickerbocker

Owner: Christopher Corp., Newport, RI. More information available from US FCC via Universal Licensing System and Coast Guard Vessel Documentation Center.

Last reported at 2018-Feb-18 16:34 UTC. Time now 2018-Feb-20 00:06 UTC.
Position N 15°53' W 061°35'.

Length 36 m; draft 3.6 m.

Type: Sailing vessel. MMSI: 367079960.

Date/timePositionNaut miles runAvg speedWind from/ knotsBaromVisibWave heightAir tempDewpointWater temp
2018-Feb-18 16:34N 15°53' W 061°35'1 9.6
2018-Feb-18 16:30N 15°54' W 061°35'16 9.4
2018-Feb-18 14:47N 16°10' W 061°32'2 8.4
2018-Feb-18 14:30N 16°12' W 061°32'1 2.4
2018-Feb-18 13:59N 16°13' W 061°32'0 0.1
2018-Feb-18 13:19N 16°13' W 061°32'0 0.0
2018-Feb-18 12:55N 16°13' W 061°32'0 0.0
2018-Feb-18 12:19N 16°13' W 061°32'0 0.0
2018-Feb-18 11:52N 16°13' W 061°32'0 0.0
2018-Feb-18 11:28N 16°13' W 061°32'0 0.0
2018-Feb-18 10:49N 16°13' W 061°32'0 0.0
2018-Feb-18 10:28N 16°13' W 061°32'0 0.0
2018-Feb-18 09:49N 16°13' W 061°32'0 0.0
2018-Feb-18 09:28N 16°13' W 061°32'0 0.0
2018-Feb-18 08:43N 16°13' W 061°32'0 0.0
2018-Feb-18 08:25N 16°13' W 061°32'0 0.0
2018-Feb-18 07:34N 16°13' W 061°32'0 0.0
2018-Feb-18 07:19N 16°13' W 061°32'0 0.0
2018-Feb-18 04:16N 16°13' W 061°32'0 0.0
2018-Feb-18 03:58N 16°13' W 061°32'0 0.0
2018-Feb-18 03:22N 16°13' W 061°32'0 0.0
2018-Feb-18 02:10N 16°13' W 061°32'0 0.0
2018-Feb-18 01:35N 16°13' W 061°32'0 0.1
2018-Feb-18 01:30N 16°13' W 061°32'0 0.0
2018-Feb-18 01:00N 16°13' W 061°32'0 0.0
2018-Feb-18 00:29N 16°13' W 061°32'0 0.0
2018-Feb-17 23:20N 16°13' W 061°32'1 3.2
2018-Feb-17 22:58N 16°12' W 061°31'1 0.8
2018-Feb-17 22:15N 16°13' W 061°32'1 0.0
2018-Feb-15 19:43N 16°13' W 061°32'0 0.8
2018-Feb-15 19:26N 16°13' W 061°32'1 2.2
2018-Feb-15 18:57N 16°12' W 061°32'18 5.3
2018-Feb-15 15:33N 16°00' W 061°46'0 8.9
2018-Feb-15 15:30N 16°01' W 061°46'15 9.6
2018-Feb-15 13:59N 16°14' W 061°51'510.6
2018-Feb-15 13:30N 16°19' W 061°52'611.6
2018-Feb-15 13:00N 16°25' W 061°52'611.7
2018-Feb-15 12:30N 16°31' W 061°51'611.4
2018-Feb-15 12:00N 16°37' W 061°50'611.5
2018-Feb-15 11:30N 16°42' W 061°50'611.7
2018-Feb-15 11:00N 16°48' W 061°50'510.8
2018-Feb-15 10:30N 16°53' W 061°48'610.8
2018-Feb-15 10:00N 16°59' W 061°47'2 4.5
2018-Feb-15 09:30N 17°01' W 061°46'0 0.2
2018-Feb-15 08:58N 17°01' W 061°46'0 0.0
2018-Feb-15 08:28N 17°01' W 061°46'0 0.0
2018-Feb-15 07:58N 17°01' W 061°46'0 0.0
2018-Feb-15 07:28N 17°01' W 061°46'0 0.0
2018-Feb-15 06:58N 17°01' W 061°46'0 0.0
2018-Feb-15 06:25N 17°01' W 061°46'0 0.0
2018-Feb-15 05:58N 17°01' W 061°46'0 0.0
2018-Feb-15 05:25N 17°01' W 061°46'0 0.0
2018-Feb-15 04:58N 17°01' W 061°46'0 0.0
2018-Feb-15 04:28N 17°01' W 061°46'0 0.0
2018-Feb-15 03:58N 17°01' W 061°46'0 0.0
2018-Feb-15 03:28N 17°01' W 061°46'0 0.0
2018-Feb-15 02:58N 17°01' W 061°46'0 0.0
2018-Feb-15 02:28N 17°01' W 061°46'0 0.0
2018-Feb-15 01:58N 17°01' W 061°46'0 0.0
2018-Feb-15 01:28N 17°01' W 061°46'0 0.0
2018-Feb-15 00:58N 17°01' W 061°46'0 0.0
2018-Feb-15 00:28N 17°01' W 061°46'0 0.0
2018-Feb-14 23:58N 17°01' W 061°46'0 0.0
2018-Feb-14 23:28N 17°01' W 061°46'0 0.0
2018-Feb-14 22:58N 17°01' W 061°46'0 0.0
2018-Feb-14 22:28N 17°01' W 061°46'0 0.0
2018-Feb-14 21:58N 17°01' W 061°46'0 0.0
2018-Feb-14 21:28N 17°01' W 061°46'0 0.0
2018-Feb-14 20:58N 17°01' W 061°46'0 0.0
2018-Feb-14 20:28N 17°01' W 061°46'0 0.0
2018-Feb-14 19:58N 17°01' W 061°46'0 0.0
2018-Feb-14 19:28N 17°01' W 061°46'0 0.0
2018-Feb-14 18:58N 17°01' W 061°46'0 0.0
2018-Feb-14 18:28N 17°01' W 061°46'0 0.0
2018-Feb-14 17:55N 17°01' W 061°46'0 0.0
2018-Feb-14 17:28N 17°01' W 061°46'0 0.0
2018-Feb-14 16:58N 17°01' W 061°46'0 0.0
2018-Feb-14 16:28N 17°01' W 061°46'0 0.0
2018-Feb-14 15:58N 17°01' W 061°46'0 0.0
2018-Feb-14 15:28N 17°01' W 061°46'0 0.0
2018-Feb-14 14:58N 17°01' W 061°46'0 0.0
2018-Feb-14 14:28N 17°01' W 061°46'0 0.0
2018-Feb-14 13:58N 17°01' W 061°46'0 0.0
2018-Feb-14 13:28N 17°01' W 061°46'0 0.0
2018-Feb-14 12:58N 17°01' W 061°46'0 0.0
2018-Feb-14 12:28N 17°01' W 061°46'0 0.0
2018-Feb-14 11:58N 17°01' W 061°46'0 0.0
2018-Feb-14 11:28N 17°01' W 061°46'0 0.0
2018-Feb-14 10:58N 17°01' W 061°46'0 0.0
2018-Feb-14 10:28N 17°01' W 061°46'0 0.0
2018-Feb-14 09:58N 17°01' W 061°46'0 0.0
2018-Feb-14 09:28N 17°01' W 061°46'0 0.0
2018-Feb-14 08:58N 17°01' W 061°46'0 0.0
2018-Feb-14 08:28N 17°01' W 061°46'0 0.0
2018-Feb-14 07:58N 17°01' W 061°46'0 0.0
2018-Feb-14 07:28N 17°01' W 061°46'0 0.0
2018-Feb-14 06:58N 17°01' W 061°46'0 0.0
2018-Feb-14 06:28N 17°01' W 061°46'0 0.0
2018-Feb-14 05:58N 17°01' W 061°46'0 0.0
2018-Feb-14 05:28N 17°01' W 061°46'0 0.0
2018-Feb-14 04:58N 17°01' W 061°46'0 0.0
2018-Feb-14 04:28N 17°01' W 061°46'0 0.0
2018-Feb-14 03:58N 17°01' W 061°46'0 0.0
2018-Feb-14 03:28N 17°01' W 061°46'0 0.0
2018-Feb-14 02:58N 17°01' W 061°46'0 0.0
2018-Feb-14 02:28N 17°01' W 061°46'0 0.0
2018-Feb-14 01:58N 17°01' W 061°46'0 0.0
2018-Feb-14 01:28N 17°01' W 061°46'0 0.0
2018-Feb-14 00:58N 17°01' W 061°46'0 0.0
2018-Feb-14 00:28N 17°01' W 061°46'0 0.0
2018-Feb-13 23:58N 17°01' W 061°46'0 0.0
2018-Feb-13 23:28N 17°01' W 061°46'0 0.0
2018-Feb-13 22:58N 17°01' W 061°46'0 0.0
2018-Feb-13 22:28N 17°01' W 061°46'0 0.0
2018-Feb-13 21:58N 17°01' W 061°46'0 0.0
2018-Feb-13 21:25N 17°01' W 061°46'0 0.0
2018-Feb-13 20:59N 17°01' W 061°46'0 0.0
2018-Feb-13 20:30N 17°01' W 061°46'0 0.0
2018-Feb-13 20:00N 17°01' W 061°46'0 0.0
2018-Feb-13 19:30N 17°01' W 061°46'0 0.0
2018-Feb-13 19:01N 17°01' W 061°46'0 0.0
2018-Feb-13 18:30N 17°01' W 061°46'0 0.0
2018-Feb-13 18:00N 17°01' W 061°46'0 0.0
2018-Feb-13 17:30N 17°01' W 061°46'0 0.0
2018-Feb-13 17:00N 17°01' W 061°46'0 0.0
2018-Feb-13 16:30N 17°01' W 061°46'0 0.0
2018-Feb-13 16:00N 17°01' W 061°46'0 0.0
2018-Feb-13 15:30N 17°01' W 061°46'0 0.0
2018-Feb-13 15:00N 17°01' W 061°46'0 0.0
2018-Feb-13 14:30N 17°01' W 061°46'0 0.0
2018-Feb-13 14:00N 17°01' W 061°46'0 0.0
2018-Feb-13 13:30N 17°01' W 061°46'0 0.0
2018-Feb-13 13:00N 17°01' W 061°46'0 0.0
2018-Feb-13 12:30N 17°01' W 061°46'0 0.0
2018-Feb-13 12:00N 17°01' W 061°46'0 0.0
2018-Feb-13 11:30N 17°01' W 061°46'0 0.0
2018-Feb-13 11:00N 17°01' W 061°46'0 0.0
2018-Feb-13 10:31N 17°01' W 061°46'0 0.0
2018-Feb-13 10:00N 17°01' W 061°46'0 0.0
2018-Feb-13 09:30N 17°01' W 061°46'0 0.0
2018-Feb-13 09:00N 17°01' W 061°46'0 0.0
2018-Feb-13 08:30N 17°01' W 061°46'0 0.0
2018-Feb-13 08:00N 17°01' W 061°46'0 0.0
2018-Feb-13 07:30N 17°01' W 061°46'0 0.0
2018-Feb-13 07:00N 17°01' W 061°46'0 0.0
2018-Feb-13 06:31N 17°01' W 061°46'0 0.0
2018-Feb-13 06:00N 17°01' W 061°46'0 0.0
2018-Feb-13 05:30N 17°01' W 061°46'0 0.0
2018-Feb-13 05:00N 17°01' W 061°46'0 0.0
2018-Feb-13 04:30N 17°01' W 061°46'0 0.0
2018-Feb-13 04:00N 17°01' W 061°46'0 0.0
2018-Feb-13 03:30N 17°01' W 061°46'0 0.0
2018-Feb-13 03:00N 17°01' W 061°46'0 0.0
2018-Feb-13 02:30N 17°01' W 061°46'0 0.0
2018-Feb-13 02:00N 17°01' W 061°46'0 0.0
2018-Feb-13 01:30N 17°01' W 061°46'0 0.0
2018-Feb-13 01:00N 17°01' W 061°46'0 0.0
2018-Feb-13 00:30N 17°01' W 061°46'0 0.0
2018-Feb-13 00:01N 17°01' W 061°46'0 0.0
2018-Feb-12 23:30N 17°01' W 061°46'0 0.0
2018-Feb-12 23:00N 17°01' W 061°46'0 0.0
2018-Feb-12 22:31N 17°01' W 061°46'0 0.0
2018-Feb-12 22:00N 17°01' W 061°46'0 0.0
2018-Feb-12 21:30N 17°01' W 061°46'0 0.0
2018-Feb-12 21:00N 17°01' W 061°46'0 0.0
2018-Feb-12 20:30N 17°01' W 061°46'0 0.0
2018-Feb-12 20:00N 17°01' W 061°46'0 0.0
2018-Feb-12 19:30N 17°01' W 061°46'0 0.0
2018-Feb-12 19:00N 17°01' W 061°46'0 0.0
2018-Feb-12 18:30N 17°01' W 061°46'0 0.0
2018-Feb-12 18:00N 17°01' W 061°46'0 0.0
2018-Feb-12 17:30N 17°01' W 061°46'0 0.0
2018-Feb-12 17:00N 17°01' W 061°46'0 0.0
2018-Feb-12 16:30N 17°01' W 061°46'0 0.0
2018-Feb-12 16:00N 17°01' W 061°46'0 0.0
2018-Feb-12 15:30N 17°01' W 061°46'0 0.0
2018-Feb-12 15:01N 17°01' W 061°46'0 0.0
2018-Feb-12 14:30N 17°01' W 061°46'0 0.0
2018-Feb-12 14:00N 17°01' W 061°46'0 0.0
2018-Feb-12 13:30N 17°01' W 061°46'0 0.0
2018-Feb-12 13:01N 17°01' W 061°46'0 0.0
2018-Feb-12 12:30N 17°01' W 061°46'0 0.0
2018-Feb-12 12:01N 17°01' W 061°46'0 0.0
2018-Feb-12 11:30N 17°01' W 061°46'0 0.0
2018-Feb-12 11:00N 17°01' W 061°46'0 0.0
2018-Feb-12 10:30N 17°01' W 061°46'0 0.0
2018-Feb-12 10:00N 17°01' W 061°46'0 0.0
2018-Feb-12 09:30N 17°01' W 061°46'0 0.0
2018-Feb-12 09:00N 17°01' W 061°46'0 0.0
2018-Feb-12 08:30N 17°01' W 061°46'0 0.0
2018-Feb-12 08:00N 17°01' W 061°46'0 0.0
2018-Feb-12 07:30N 17°01' W 061°46'0 0.0
2018-Feb-12 07:00N 17°01' W 061°46'0 0.0
2018-Feb-12 06:30N 17°01' W 061°46'0 0.0
2018-Feb-12 06:00N 17°01' W 061°46'0 0.0
2018-Feb-12 05:30N 17°01' W 061°46'0 0.0
2018-Feb-12 05:00N 17°01' W 061°46'0 0.0
2018-Feb-12 04:30N 17°01' W 061°46'0 0.0
2018-Feb-12 04:00N 17°01' W 061°46'0 0.0
2018-Feb-12 03:30N 17°01' W 061°46'0 0.0
2018-Feb-12 03:00N 17°01' W 061°46'0 0.0
2018-Feb-12 02:30N 17°01' W 061°46'0 0.0
2018-Feb-12 02:00N 17°01' W 061°46'0 0.0
2018-Feb-12 01:30N 17°01' W 061°46'0 0.0
2018-Feb-12 01:00N 17°01' W 061°46'0 0.0
2018-Feb-12 00:31N 17°01' W 061°46'0 0.0
2018-Feb-12 00:00N 17°01' W 061°46'0 0.0
2018-Feb-11 23:30N 17°01' W 061°46'0 0.0
2018-Feb-11 23:00N 17°01' W 061°46'0 0.0
2018-Feb-11 22:30N 17°01' W 061°46'0 0.0
2018-Feb-11 22:00N 17°01' W 061°46'0 0.0
2018-Feb-11 21:30N 17°01' W 061°46'0 0.0
2018-Feb-11 21:01N 17°01' W 061°46'0 0.0
2018-Feb-11 20:30N 17°01' W 061°46'0 0.0
2018-Feb-11 20:00N 17°01' W 061°46'0 0.0
2018-Feb-11 19:30N 17°01' W 061°46'0 0.0
2018-Feb-11 19:00N 17°01' W 061°46'0 0.0
2018-Feb-11 18:30N 17°01' W 061°46'0 0.0
2018-Feb-11 18:00N 17°01' W 061°46'0 0.0
2018-Feb-11 17:30N 17°01' W 061°46'0 0.0
2018-Feb-11 17:00N 17°01' W 061°46'0 0.0
2018-Feb-11 16:30N 17°01' W 061°46'0 0.0
2018-Feb-11 16:01N 17°01' W 061°46'0 0.0
2018-Feb-11 15:30N 17°01' W 061°46'0 0.0
2018-Feb-11 15:00N 17°01' W 061°46'0 0.0
2018-Feb-11 14:30N 17°01' W 061°46'0 0.0
2018-Feb-11 14:00N 17°01' W 061°46'1 1.2
2018-Feb-11 13:31N 17°01' W 061°47'3 5.3
2018-Feb-11 13:00N 16°60' W 061°49'3 7.0
2018-Feb-11 12:31N 17°01' W 061°53'4 8.2
2018-Feb-11 12:00N 17°05' W 061°55'5 9.6
2018-Feb-11 11:31N 17°09' W 061°53'510.4
2018-Feb-11 11:00N 17°11' W 061°48'3 6.8
2018-Feb-11 10:30N 17°09' W 061°45'0 0.2
2018-Feb-11 09:59N 17°09' W 061°45'0 0.0
2018-Feb-11 09:29N 17°09' W 061°45'0 0.0
2018-Feb-11 08:59N 17°09' W 061°45'0 0.0
2018-Feb-11 08:29N 17°09' W 061°45'0 0.0
2018-Feb-11 07:59N 17°09' W 061°45'0 0.0
2018-Feb-11 07:29N 17°09' W 061°45'0 0.0
2018-Feb-11 06:59N 17°09' W 061°45'0 0.0
2018-Feb-11 06:29N 17°09' W 061°45'0 0.0
2018-Feb-11 05:59N 17°09' W 061°45'0 0.0
2018-Feb-11 05:29N 17°09' W 061°45'0 0.0
2018-Feb-11 04:59N 17°09' W 061°45'0 0.0
2018-Feb-11 04:29N 17°09' W 061°45'0 0.0
2018-Feb-11 03:59N 17°09' W 061°45'0 0.0
2018-Feb-11 03:29N 17°09' W 061°45'0 0.0
2018-Feb-11 02:59N 17°09' W 061°45'0 0.0
2018-Feb-11 02:29N 17°09' W 061°45'0 0.0
2018-Feb-11 01:59N 17°09' W 061°45'0 0.0
2018-Feb-11 01:29N 17°09' W 061°45'0 0.0
2018-Feb-11 00:59N 17°09' W 061°45'0 0.0
2018-Feb-11 00:29N 17°09' W 061°45'0 0.0
2018-Feb-10 23:59N 17°09' W 061°45'0 0.0
2018-Feb-10 23:29N 17°09' W 061°45'0 0.0
2018-Feb-10 22:59N 17°09' W 061°45'0 0.0
2018-Feb-10 22:29N 17°09' W 061°45'0 0.0
2018-Feb-10 21:59N 17°09' W 061°45'0 0.0
2018-Feb-10 21:29N 17°09' W 061°45'0 0.0
2018-Feb-10 20:59N 17°09' W 061°45'0 0.0
2018-Feb-10 20:29N 17°09' W 061°45'0 0.0
2018-Feb-10 19:59N 17°09' W 061°45'0 0.0
2018-Feb-10 19:29N 17°09' W 061°45'0 0.0
2018-Feb-10 18:59N 17°09' W 061°45'0 0.0
2018-Feb-10 18:29N 17°09' W 061°45'0 0.0
2018-Feb-10 17:59N 17°09' W 061°45'0 0.0
2018-Feb-10 17:29N 17°09' W 061°45'0 0.0
2018-Feb-10 16:59N 17°09' W 061°45'0 0.0
2018-Feb-10 16:29N 17°09' W 061°45'0 0.0
2018-Feb-10 15:59N 17°09' W 061°45'0 0.0
2018-Feb-10 15:29N 17°09' W 061°45'0 0.0
2018-Feb-10 14:59N 17°09' W 061°45'0 0.0
2018-Feb-10 14:29N 17°09' W 061°45'0 0.0
2018-Feb-10 13:59N 17°09' W 061°45'0 0.0
2018-Feb-10 13:29N 17°09' W 061°45'0 0.0
2018-Feb-10 12:59N 17°09' W 061°45'0 0.0
2018-Feb-10 12:29N 17°09' W 061°45'0 0.0
2018-Feb-10 11:59N 17°09' W 061°45'0 0.0
2018-Feb-10 11:29N 17°09' W 061°45'0 0.0
2018-Feb-10 10:59N 17°09' W 061°45'0 0.0
2018-Feb-10 10:29N 17°09' W 061°45'0 0.0
2018-Feb-10 09:59N 17°09' W 061°45'0 0.0
2018-Feb-10 09:29N 17°09' W 061°45'0 0.0
2018-Feb-10 08:59N 17°09' W 061°45'0 0.0
2018-Feb-10 08:29N 17°09' W 061°45'0 0.0
2018-Feb-10 07:59N 17°09' W 061°45'0 0.0
2018-Feb-10 07:29N 17°09' W 061°45'0 0.0
2018-Feb-10 06:59N 17°09' W 061°45'0 0.0
2018-Feb-10 06:29N 17°09' W 061°45'0 0.0
2018-Feb-10 05:59N 17°09' W 061°45'0 0.0
2018-Feb-10 05:29N 17°09' W 061°45'0 0.0
2018-Feb-10 04:59N 17°09' W 061°45'0 0.0
2018-Feb-10 04:29N 17°09' W 061°45'0 0.0
2018-Feb-10 03:59N 17°09' W 061°45'0 0.0
2018-Feb-10 03:29N 17°09' W 061°45'0 0.0
2018-Feb-10 02:59N 17°09' W 061°45'0 0.0
2018-Feb-10 02:29N 17°09' W 061°45'0 0.0
2018-Feb-10 01:59N 17°09' W 061°45'0 0.0
2018-Feb-10 01:29N 17°09' W 061°45'0 0.0
2018-Feb-10 00:59N 17°09' W 061°45'0 0.0
2018-Feb-10 00:29N 17°09' W 061°45'0 0.0
2018-Feb-09 23:59N 17°09' W 061°45'0 0.0
2018-Feb-09 23:29N 17°09' W 061°45'0 0.0
2018-Feb-09 22:59N 17°09' W 061°45'0 0.0
2018-Feb-09 22:44N 17°09' W 061°45'0 0.0
2018-Feb-08 22:00N 17°09' W 061°45'0 0.0
2018-Feb-08 21:30N 17°09' W 061°45'0 0.0
2018-Feb-08 21:00N 17°09' W 061°45'0 0.0
2018-Feb-08 20:30N 17°09' W 061°45'0 0.1
2018-Feb-08 20:00N 17°09' W 061°45'0 0.0
2018-Feb-08 19:30N 17°09' W 061°45'  

Dump ship's entire track history